createdAt,value
2024-02-04T00:02:36.317Z,4.15
2024-02-04T00:05:38.767Z,2.22
2024-02-04T00:08:41.119Z,2.28
2024-02-04T00:11:43.561Z,2.20
2024-02-04T00:14:47.397Z,2.50
2024-02-04T00:17:49.764Z,3.65
2024-02-04T00:20:52.025Z,7.45
2024-02-04T00:23:54.303Z,5.22
2024-02-04T00:26:56.494Z,4.72
2024-02-04T00:30:00.243Z,4.78
2024-02-04T00:33:04.339Z,4.22
2024-02-04T00:36:08.208Z,4.25
2024-02-04T00:39:10.414Z,4.30
2024-02-04T00:42:13.473Z,3.35
2024-02-04T00:45:17.498Z,3.30
2024-02-04T00:48:19.992Z,3.38
2024-02-04T00:51:23.077Z,3.03
2024-02-04T00:54:25.390Z,3.40
2024-02-04T00:57:27.780Z,2.30
2024-02-04T01:00:31.531Z,2.97
2024-02-04T01:03:34.035Z,2.78
2024-02-04T01:06:47.228Z,2.05
2024-02-04T01:09:54.015Z,1.30
2024-02-04T01:12:56.384Z,1.20
2024-02-04T01:16:00.244Z,1.23
2024-02-04T01:19:02.633Z,0.80
2024-02-04T01:22:06.873Z,0.63
2024-02-04T01:25:09.704Z,0.68
2024-02-04T01:28:12.097Z,1.25
2024-02-04T01:31:15.783Z,0.65
2024-02-04T01:34:18.454Z,0.60
2024-02-04T01:37:20.713Z,0.60
2024-02-04T01:40:24.300Z,0.68
2024-02-04T01:43:27.135Z,0.50
2024-02-04T01:46:30.788Z,0.60
2024-02-04T01:49:33.154Z,1.05
2024-02-04T01:52:37.633Z,0.63
2024-02-04T01:55:40.409Z,0.70
2024-02-04T01:58:44.835Z,0.65
2024-02-04T02:01:49.080Z,0.60
2024-02-04T02:04:52.131Z,0.57
2024-02-04T02:07:54.527Z,0.70
2024-02-04T02:11:02.335Z,0.75
2024-02-04T02:14:08.332Z,0.70
2024-02-04T02:17:19.545Z,0.68
2024-02-04T02:20:25.210Z,0.50
2024-02-04T02:23:31.649Z,0.70
2024-02-04T02:26:39.190Z,0.93
2024-02-04T02:29:41.501Z,0.50
2024-02-04T02:32:44.574Z,1.55
2024-02-04T02:35:47.777Z,0.60
2024-02-04T02:38:54.884Z,0.80
2024-02-04T02:42:01.472Z,0.60
2024-02-04T02:45:04.497Z,0.50
2024-02-04T02:48:09.755Z,0.60
2024-02-04T02:51:12.048Z,0.77
2024-02-04T02:54:14.417Z,0.70
2024-02-04T02:57:18.144Z,0.85
2024-02-04T03:00:21.188Z,0.80
2024-02-04T03:03:26.876Z,0.80
2024-02-04T03:06:29.322Z,0.70
2024-02-04T03:09:31.879Z,0.80
2024-02-04T03:12:35.564Z,0.75
2024-02-04T03:15:38.114Z,0.75
2024-02-04T03:18:41.856Z,0.95
2024-02-04T03:21:45.455Z,0.70
2024-02-04T03:24:47.945Z,0.95
2024-02-04T03:27:52.934Z,0.90
2024-02-04T03:30:55.546Z,0.85
2024-02-04T03:33:58.379Z,0.95
2024-02-04T03:37:00.870Z,1.38
2024-02-04T03:40:03.512Z,1.27
2024-02-04T03:43:07.342Z,1.15
2024-02-04T03:46:09.823Z,2.40
2024-02-04T03:49:12.446Z,1.27
2024-02-04T03:52:15.418Z,1.63
2024-02-04T03:55:18.200Z,1.58
2024-02-04T03:58:30.236Z,1.90
2024-02-04T04:01:32.758Z,1.95
2024-02-04T04:04:35.310Z,1.50
2024-02-04T04:07:37.777Z,1.65
2024-02-04T04:10:40.091Z,1.42
2024-02-04T04:13:43.882Z,1.35
2024-02-04T04:16:47.878Z,1.40
2024-02-04T04:19:50.249Z,1.88
2024-02-04T04:22:52.510Z,1.83
2024-02-04T04:25:54.773Z,1.40
2024-02-04T04:28:58.462Z,1.23
2024-02-04T04:32:00.730Z,1.48
2024-02-04T04:35:04.784Z,1.42
2024-02-04T04:38:07.035Z,1.60
2024-02-04T04:41:09.361Z,1.77
2024-02-04T04:44:12.941Z,1.75
2024-02-04T04:47:16.324Z,1.92
2024-02-04T04:50:18.638Z,1.58
2024-02-04T04:53:20.862Z,1.92
2024-02-04T04:56:23.078Z,1.52
2024-02-04T04:59:26.588Z,2.00
2024-02-04T05:02:28.770Z,1.55
2024-02-04T05:05:30.958Z,1.58
2024-02-04T05:08:34.877Z,1.52
2024-02-04T05:11:37.060Z,1.42
2024-02-04T05:14:40.770Z,2.65
2024-02-04T05:17:43.081Z,2.15
2024-02-04T05:20:45.570Z,1.90
2024-02-04T05:23:47.992Z,2.15
2024-02-04T05:26:50.193Z,2.40
2024-02-04T05:29:56.186Z,1.70
2024-02-04T05:32:59.971Z,1.63
2024-02-04T05:36:02.322Z,2.15
2024-02-04T05:39:12.390Z,2.70
2024-02-04T05:42:14.609Z,2.88
2024-02-04T05:45:18.306Z,2.20
2024-02-04T05:48:20.833Z,2.47
2024-02-04T05:51:23.370Z,2.63
2024-02-04T05:54:25.798Z,2.08
2024-02-04T05:57:28.131Z,2.42
2024-02-04T06:00:31.810Z,2.42
2024-02-04T06:03:34.168Z,2.70
2024-02-04T06:06:36.913Z,2.28
2024-02-04T06:09:39.362Z,2.10
2024-02-04T06:12:46.111Z,1.75
2024-02-04T06:15:49.868Z,1.75
2024-02-04T06:18:56.764Z,1.50
2024-02-04T06:21:59.412Z,2.00
2024-02-04T06:25:02.014Z,1.60
2024-02-04T06:28:05.020Z,2.10
2024-02-04T06:31:11.172Z,1.67
2024-02-04T06:34:13.792Z,2.08
2024-02-04T06:37:16.102Z,1.48
2024-02-04T06:40:18.652Z,1.55
2024-02-04T06:43:21.045Z,1.23
2024-02-04T06:46:28.171Z,1.10
2024-02-04T06:49:30.592Z,0.95
2024-02-04T06:52:32.888Z,0.80
2024-02-04T06:55:35.354Z,0.90
2024-02-04T06:58:38.606Z,0.90
2024-02-04T07:01:42.904Z,0.80
2024-02-04T07:04:45.226Z,0.90
2024-02-04T07:07:47.659Z,0.88
2024-02-04T07:10:50.435Z,1.08
2024-02-04T07:13:59.446Z,0.80
2024-02-04T07:17:03.435Z,0.70
2024-02-04T07:20:07.265Z,0.90
2024-02-04T07:23:10.367Z,0.75
2024-02-04T07:26:13.168Z,0.70
2024-02-04T07:29:15.533Z,0.75
2024-02-04T07:32:19.165Z,0.70
2024-02-04T07:35:21.425Z,0.77
2024-02-04T07:38:23.823Z,0.80
2024-02-04T07:41:27.035Z,0.80
2024-02-04T07:44:30.116Z,0.60
2024-02-04T07:47:33.808Z,0.60
2024-02-04T07:50:36.099Z,0.70
2024-02-04T07:53:38.385Z,0.50
2024-02-04T07:56:41.024Z,0.70
2024-02-04T07:59:43.411Z,0.60
2024-02-04T08:02:48.030Z,0.65
2024-02-04T08:05:50.403Z,0.77
2024-02-04T08:08:52.692Z,0.57
2024-02-04T08:11:57.187Z,1.08
2024-02-04T08:15:01.657Z,0.55
2024-02-04T08:18:08.469Z,0.40
2024-02-04T08:21:11.188Z,0.50
2024-02-04T08:24:13.713Z,0.57
2024-02-04T08:27:19.256Z,1.35
2024-02-04T08:30:24.503Z,0.60
2024-02-04T08:33:28.326Z,0.50
2024-02-04T08:36:32.082Z,0.70
2024-02-04T08:39:34.424Z,0.80
2024-02-04T08:42:36.709Z,0.50
2024-02-04T08:45:39.110Z,0.60
2024-02-04T08:48:46.307Z,0.43
2024-02-04T08:51:49.660Z,0.55
2024-02-04T08:54:52.036Z,0.40
2024-02-04T08:57:54.577Z,0.35
2024-02-04T09:00:57.484Z,0.40
2024-02-04T09:04:01.316Z,0.40
2024-02-04T09:07:04.124Z,0.77
2024-02-04T09:10:08.427Z,0.30
2024-02-04T09:13:10.917Z,0.55
2024-02-04T09:16:13.384Z,0.20
2024-02-04T09:19:17.387Z,0.40
2024-02-04T09:22:19.858Z,0.30
2024-02-04T09:25:22.327Z,0.20
2024-02-04T09:28:25.790Z,0.20
2024-02-04T09:31:29.800Z,0.30
2024-02-04T09:34:33.976Z,0.20
2024-02-04T09:37:36.459Z,0.20
2024-02-04T09:40:38.766Z,0.30
2024-02-04T09:43:41.754Z,0.30
2024-02-04T09:46:44.348Z,0.30
2024-02-04T09:49:48.505Z,0.35
2024-02-04T09:52:54.383Z,0.30
2024-02-04T09:55:57.804Z,0.30
2024-02-04T09:59:00.146Z,0.30
2024-02-04T10:02:03.423Z,0.40
2024-02-04T10:05:08.641Z,0.38
2024-02-04T10:08:12.506Z,0.30
2024-02-04T10:11:14.842Z,0.40
2024-02-04T10:14:19.713Z,0.30
2024-02-04T10:17:22.703Z,0.40
2024-02-04T10:20:26.295Z,0.80
2024-02-04T10:23:28.792Z,0.45
2024-02-04T10:26:32.695Z,0.50
2024-02-04T10:29:35.041Z,0.73
2024-02-04T10:32:37.389Z,0.80
2024-02-04T10:35:43.550Z,0.50
2024-02-04T10:42:11.825Z,0.50
2024-02-04T10:45:18.490Z,0.60
2024-02-04T10:48:22.227Z,0.60
2024-02-04T10:51:27.639Z,0.55
2024-02-04T10:54:31.297Z,2.33
2024-02-04T10:57:33.632Z,0.70
2024-02-04T11:00:36.069Z,4.40
2024-02-04T11:03:40.325Z,11.68
2024-02-04T11:06:45.410Z,1.05
2024-02-04T11:09:51.459Z,0.30
2024-02-04T11:12:54.154Z,0.30
2024-02-04T11:16:34.208Z,0.20
2024-02-04T11:19:45.424Z,0.30
2024-02-04T11:23:03.130Z,0.38
2024-02-04T11:26:06.110Z,0.32
2024-02-04T11:29:11.231Z,0.20
2024-02-04T11:32:14.192Z,0.13
2024-02-04T11:35:16.919Z,0.30
2024-02-04T11:38:20.989Z,0.20
2024-02-04T11:41:28.510Z,0.20
2024-02-04T11:44:31.970Z,0.20
2024-02-04T11:47:36.143Z,0.38
2024-02-04T11:50:39.754Z,0.40
2024-02-04T11:53:43.974Z,0.50
2024-02-04T11:56:46.617Z,0.50
2024-02-04T11:59:49.097Z,0.60
2024-02-04T12:03:02.139Z,0.68
2024-02-04T12:06:05.224Z,0.50
2024-02-04T12:09:09.632Z,0.55
2024-02-04T12:12:12.068Z,0.50
2024-02-04T12:15:14.974Z,0.80
2024-02-04T12:18:20.970Z,0.57
2024-02-04T12:21:25.734Z,0.77
2024-02-04T12:24:29.500Z,0.65
2024-02-04T12:27:31.785Z,0.63
2024-02-04T12:30:34.878Z,0.70
2024-02-04T12:33:39.179Z,1.30
2024-02-04T12:36:41.763Z,0.85
2024-02-04T12:39:45.746Z,0.60
2024-02-04T12:42:53.874Z,0.85
2024-02-04T12:45:57.830Z,0.57
2024-02-04T12:49:03.944Z,0.60
2024-02-04T12:52:09.168Z,0.77
2024-02-04T12:55:22.614Z,0.75
2024-02-04T12:58:25.213Z,0.70
2024-02-04T13:01:27.641Z,0.70
2024-02-04T13:04:35.164Z,0.80
2024-02-04T13:07:37.749Z,0.60
2024-02-04T13:10:43.905Z,0.60
2024-02-04T13:13:46.331Z,0.50
2024-02-04T13:16:49.358Z,0.60
2024-02-04T13:19:51.704Z,0.52
2024-02-04T13:22:54.775Z,0.90
2024-02-04T13:25:58.702Z,0.88
2024-02-04T13:29:00.946Z,0.60
2024-02-04T13:32:03.513Z,0.50
2024-02-04T13:35:13.484Z,0.50
2024-02-04T13:38:21.664Z,0.52
2024-02-04T13:41:25.253Z,0.50
2024-02-04T13:44:27.524Z,0.40
2024-02-04T13:47:30.024Z,0.40
2024-02-04T13:50:32.364Z,0.50
2024-02-04T13:53:35.369Z,0.60
2024-02-04T13:56:41.896Z,0.45
2024-02-04T13:59:44.182Z,0.40
2024-02-04T14:02:46.463Z,0.30
2024-02-04T14:05:48.949Z,0.45
2024-02-04T14:08:51.300Z,0.43
2024-02-04T14:11:55.733Z,0.40
2024-02-04T14:14:59.967Z,0.40
2024-02-04T14:18:02.383Z,0.60
2024-02-04T14:21:07.962Z,0.50
2024-02-04T14:24:10.364Z,0.80
2024-02-04T14:27:14.056Z,0.77
2024-02-04T14:30:16.829Z,1.38
2024-02-04T14:33:20.516Z,0.63
2024-02-04T14:36:22.819Z,0.80
2024-02-04T14:39:25.112Z,0.80
2024-02-04T14:42:28.811Z,0.60
2024-02-04T14:45:31.099Z,0.40
2024-02-04T14:48:33.635Z,0.47
2024-02-04T14:51:40.185Z,0.63
2024-02-04T14:54:42.596Z,0.52
2024-02-04T14:57:46.412Z,0.52
2024-02-04T15:00:49.200Z,0.50
2024-02-04T15:03:51.708Z,0.40
2024-02-04T15:06:54.137Z,0.40
2024-02-04T15:09:56.551Z,0.60
2024-02-04T15:13:00.924Z,0.55
2024-02-04T15:16:05.165Z,0.52
2024-02-04T15:19:11.156Z,0.47
2024-02-04T15:22:14.465Z,0.80
2024-02-04T15:25:18.668Z,0.60
2024-02-04T15:28:24.712Z,0.70
2024-02-04T15:31:29.262Z,0.82
2024-02-04T15:34:33.391Z,0.77
2024-02-04T15:37:36.404Z,0.60
2024-02-04T15:40:38.696Z,0.65
2024-02-04T15:43:44.077Z,0.60
2024-02-04T15:46:46.826Z,0.50
2024-02-04T15:49:50.241Z,0.55
2024-02-04T15:52:53.553Z,0.60
2024-02-04T15:55:57.232Z,0.63
2024-02-04T15:59:07.073Z,0.80
2024-02-04T16:02:11.456Z,1.10
2024-02-04T16:05:15.138Z,0.60
2024-02-04T16:08:17.989Z,0.52
2024-02-04T16:11:21.085Z,0.68
2024-02-04T16:14:25.905Z,0.60
2024-02-04T16:17:34.465Z,0.80
2024-02-04T16:20:40.149Z,0.50
2024-02-04T16:23:43.372Z,0.40
2024-02-04T16:26:45.795Z,0.40
2024-02-04T16:29:49.625Z,0.40
2024-02-04T16:32:54.249Z,0.60
2024-02-04T16:35:57.008Z,0.77
2024-02-04T16:39:06.378Z,0.40
2024-02-04T16:42:09.848Z,0.40
2024-02-04T16:45:13.712Z,0.80
2024-02-04T16:48:16.102Z,0.47
2024-02-04T16:51:21.616Z,0.55
2024-02-04T16:54:29.442Z,0.30
2024-02-04T16:57:33.070Z,0.30
2024-02-04T17:00:36.943Z,0.40
2024-02-04T17:03:39.960Z,0.40
2024-02-04T17:06:45.353Z,0.30
2024-02-04T17:09:54.092Z,0.30
2024-02-04T17:12:57.505Z,0.40
2024-02-04T17:16:01.862Z,0.28
2024-02-04T17:19:12.975Z,0.30
2024-02-04T17:22:19.322Z,0.40
2024-02-04T17:25:26.000Z,0.30
2024-02-04T17:28:28.951Z,0.30
2024-02-04T17:31:33.371Z,0.50
2024-02-04T17:34:37.710Z,0.50
2024-02-04T17:37:40.862Z,0.40
2024-02-04T17:40:43.500Z,0.50
2024-02-04T17:43:45.696Z,0.73
2024-02-04T17:46:50.435Z,0.70
2024-02-04T17:49:53.096Z,0.50
2024-02-04T17:52:55.394Z,0.57
2024-02-04T17:55:57.762Z,0.60
2024-02-04T17:59:00.077Z,0.55
2024-02-04T18:02:04.397Z,0.30
2024-02-04T18:05:07.491Z,0.47
2024-02-04T18:08:10.542Z,0.60
2024-02-04T18:11:16.888Z,0.60
2024-02-04T18:14:19.081Z,0.80
2024-02-04T18:17:22.702Z,0.90
2024-02-04T18:20:24.868Z,0.90
2024-02-04T18:23:27.224Z,1.17
2024-02-04T18:26:31.942Z,1.90
2024-02-04T18:29:34.259Z,1.10
2024-02-04T18:32:38.305Z,1.13
2024-02-04T18:35:40.750Z,0.98
2024-02-04T18:38:43.064Z,1.20
2024-02-04T18:41:47.588Z,1.30
2024-02-04T18:44:50.121Z,0.90
2024-02-04T18:47:53.693Z,1.15
2024-02-04T18:50:58.166Z,1.15
2024-02-04T18:54:00.979Z,1.52
2024-02-04T18:57:04.716Z,1.25
2024-02-04T19:00:09.986Z,1.30
2024-02-04T19:03:13.583Z,1.73
2024-02-04T19:06:25.198Z,1.40
2024-02-04T19:09:27.633Z,1.73
2024-02-04T19:12:29.996Z,1.30
2024-02-04T19:15:32.475Z,1.40
2024-02-04T19:18:36.406Z,1.60
2024-02-04T19:21:43.619Z,1.40
2024-02-04T19:24:46.438Z,1.40
2024-02-04T19:27:50.066Z,0.85
2024-02-04T19:30:52.361Z,1.20
2024-02-04T19:33:56.052Z,1.25
2024-02-04T19:36:58.928Z,1.00
2024-02-04T19:40:01.240Z,0.75
2024-02-04T19:43:04.210Z,0.70
2024-02-04T19:46:07.754Z,0.70
2024-02-04T19:49:11.927Z,0.50
2024-02-04T19:52:14.372Z,0.55
2024-02-04T19:55:17.325Z,0.70
2024-02-04T19:58:19.852Z,0.65
2024-02-04T20:01:22.398Z,0.68
2024-02-04T20:04:26.403Z,0.50
2024-02-04T20:07:30.371Z,1.23
2024-02-04T20:10:33.194Z,0.70
2024-02-04T20:13:38.418Z,0.80
2024-02-04T20:16:40.905Z,0.60
2024-02-04T20:19:44.951Z,0.93
2024-02-04T20:22:47.885Z,1.15
2024-02-04T20:25:51.136Z,1.17
2024-02-04T20:28:53.382Z,1.33
2024-02-04T20:31:55.673Z,0.90
2024-02-04T20:35:00.374Z,0.98
2024-02-04T20:38:02.825Z,0.70
2024-02-04T20:41:06.249Z,0.75
2024-02-04T20:44:08.609Z,0.80
2024-02-04T20:47:10.856Z,1.23
2024-02-04T20:50:14.722Z,1.00
2024-02-04T20:53:17.087Z,0.80
2024-02-04T20:56:19.295Z,0.93
2024-02-04T20:59:21.623Z,0.80
2024-02-04T21:02:23.885Z,0.80
2024-02-04T21:05:28.407Z,0.60
2024-02-04T21:08:32.818Z,0.60
2024-02-04T21:11:35.083Z,0.68
2024-02-04T21:14:38.877Z,0.60
2024-02-04T21:17:41.232Z,0.60
2024-02-04T21:20:45.438Z,1.05
2024-02-04T21:23:48.539Z,1.73
2024-02-04T21:26:52.040Z,0.50
2024-02-04T21:29:54.331Z,0.38
2024-02-04T21:32:56.721Z,0.35
2024-02-04T21:36:02.965Z,0.50
2024-02-04T21:39:09.109Z,0.45
2024-02-04T21:42:11.330Z,0.50
2024-02-04T21:45:13.871Z,0.40
2024-02-04T21:48:16.222Z,0.43
2024-02-04T21:51:19.901Z,0.50
2024-02-04T21:54:24.103Z,0.47
2024-02-04T21:57:27.488Z,0.55
2024-02-04T22:00:30.645Z,0.50
2024-02-04T22:03:34.341Z,0.47
2024-02-04T22:06:38.376Z,0.40
2024-02-04T22:09:40.792Z,0.50
2024-02-04T22:12:44.090Z,0.60
2024-02-04T22:15:47.359Z,0.40
2024-02-04T22:18:49.766Z,0.40
2024-02-04T22:21:53.491Z,0.50
2024-02-04T22:24:56.563Z,0.43
2024-02-04T22:27:59.872Z,0.80
2024-02-04T22:31:02.296Z,0.50
2024-02-04T22:34:04.693Z,0.50
2024-02-04T22:37:09.828Z,0.40
2024-02-04T22:40:13.928Z,0.60
2024-02-04T22:43:16.504Z,0.50
2024-02-04T22:46:18.809Z,0.77
2024-02-04T22:49:21.863Z,0.70
2024-02-04T22:52:25.580Z,0.70
2024-02-04T22:55:27.870Z,0.55
2024-02-04T22:58:30.176Z,1.10
2024-02-04T23:01:32.574Z,0.77
2024-02-04T23:04:36.981Z,1.05
2024-02-04T23:07:50.655Z,0.82
2024-02-04T23:10:54.249Z,1.75
2024-02-04T23:13:56.665Z,1.27
2024-02-04T23:16:58.956Z,1.10
2024-02-04T23:20:05.440Z,1.05
2024-02-04T23:23:11.539Z,2.10
2024-02-04T23:26:15.611Z,1.33
2024-02-04T23:29:17.820Z,2.20
2024-02-04T23:32:27.479Z,1.20
2024-02-04T23:36:17.106Z,1.48
2024-02-04T23:39:57.924Z,1.10
2024-02-04T23:43:20.182Z,1.63
2024-02-04T23:50:15.906Z,2.03
2024-02-04T23:53:24.589Z,1.27
2024-02-04T23:59:57.762Z,1.25
